Time;durP1;ratioP1;P1;durP2;ratioP2;P2;SDS_P1;SDS_P2;PMS_P1;PMS_P2;Temp;Humidity;BMP_temperature;BMP_pressure;BME280_temperature;BME280_humidity;BME280_pressure;Samples;Min_cycle;Max_cycle;Signal;HPM_P1;HPM_P2
2021/08/01 00:01:24;;;;;;;5.72;2.33;;;15.70;99.90;;;;;;5046372;28;20076;-72
2021/08/01 00:03:50;;;;;;;7.35;2.20;;;15.70;99.90;;;;;;5044935;28;20030;-72
2021/08/01 00:06:16;;;;;;;6.78;2.83;;;15.70;99.90;;;;;;5044779;28;20104;-72
2021/08/01 00:08:42;;;;;;;4.57;2.63;;;15.70;99.90;;;;;;5045889;28;20017;-71
2021/08/01 00:11:08;;;;;;;6.22;2.67;;;15.60;99.90;;;;;;5044690;28;20025;-71
2021/08/01 00:13:33;;;;;;;6.30;2.78;;;15.70;99.90;;;;;;5045993;28;20029;-71
2021/08/01 00:16:00;;;;;;;7.25;3.25;;;15.70;99.90;;;;;;5044568;28;20060;-71
2021/08/01 00:18:26;;;;;;;7.13;2.80;;;15.60;99.90;;;;;;5046131;28;20025;-72
2021/08/01 00:20:51;;;;;;;2.78;2.08;;;15.60;99.90;;;;;;5044874;28;20481;-71
2021/08/01 00:23:17;;;;;;;6.78;2.38;;;15.60;99.90;;;;;;5046013;28;20022;-73
2021/08/01 00:25:43;;;;;;;6.63;3.28;;;15.60;99.90;;;;;;5045829;28;20040;-71
2021/08/01 00:28:09;;;;;;;6.07;3.33;;;15.70;99.90;;;;;;5044494;28;20036;-71
2021/08/01 00:30:34;;;;;;;5.38;2.75;;;15.60;99.90;;;;;;5045655;28;20026;-71
2021/08/01 00:33:00;;;;;;;10.30;3.05;;;15.60;99.90;;;;;;5044132;28;20060;-71
2021/08/01 00:35:27;;;;;;;7.35;2.78;;;15.60;99.90;;;;;;5044404;28;20032;-71
2021/08/01 00:37:55;;;;;;;4.32;2.50;;;15.50;99.90;;;;;;5045753;28;20037;-72
2021/08/01 00:40:22;;;;;;;6.93;3.10;;;15.50;99.90;;;;;;5044453;28;20039;-71
2021/08/01 00:42:50;;;;;;;5.28;3.08;;;15.50;99.90;;;;;;5045097;28;20026;-73
2021/08/01 00:45:16;;;;;;;8.73;4.35;;;15.50;99.90;;;;;;5044260;28;20856;-70
2021/08/01 00:47:43;;;;;;;5.97;3.22;;;15.50;99.90;;;;;;5045314;28;20034;-73
2021/08/01 00:50:09;;;;;;;10.57;2.75;;;15.50;99.90;;;;;;5045255;28;20033;-73
2021/08/01 00:52:38;;;;;;;7.72;3.38;;;15.50;99.90;;;;;;5045265;28;20029;-71
2021/08/01 00:55:09;;;;;;;6.88;3.33;;;15.50;99.90;;;;;;5045277;28;20029;-72
2021/08/01 00:57:35;;;;;;;12.23;3.50;;;15.50;99.90;;;;;;5045267;28;20033;-72
2021/08/01 01:00:03;;;;;;;10.43;4.93;;;15.50;99.90;;;;;;5045196;28;20036;-73
2021/08/01 01:02:39;;;;;;;7.90;4.10;;;15.50;99.90;;;;;;5043351;28;20069;-70
2021/08/01 01:05:36;;;;;;;7.63;4.32;;;15.50;99.90;;;;;;5045025;28;20090;-72
2021/08/01 01:08:16;;;;;;;17.27;4.00;;;15.40;99.90;;;;;;5040673;28;20044;-72
2021/08/01 01:10:46;;;;;;;12.52;3.78;;;15.40;99.90;;;;;;5045062;28;20031;-73
2021/08/01 01:13:14;;;;;;;11.95;4.32;;;15.40;99.90;;;;;;5044966;28;20088;-71
2021/08/01 01:15:50;;;;;;;15.77;4.20;;;15.40;99.90;;;;;;5044736;28;20498;-71
2021/08/01 01:18:32;;;;;;;9.65;4.38;;;15.40;99.90;;;;;;5044884;28;20041;-69
2021/08/01 01:21:29;;;;;;;13.55;4.20;;;15.40;99.90;;;;;;5045009;28;20093;-69
2021/08/01 01:24:08;;;;;;;15.57;5.43;;;15.40;99.90;;;;;;5044827;28;20036;-74
2021/08/01 01:26:38;;;;;;;10.70;4.93;;;15.40;99.90;;;;;;5043546;28;20041;-71
2021/08/01 01:29:19;;;;;;;9.57;4.53;;;15.40;99.90;;;;;;5044771;28;20021;-71
2021/08/01 01:31:45;;;;;;;8.35;3.97;;;15.40;99.90;;;;;;5044578;28;20026;-72
2021/08/01 01:34:36;;;;;;;7.18;3.95;;;15.40;99.90;;;;;;5043231;28;20045;-70
2021/08/01 01:37:05;;;;;;;8.10;4.35;;;15.40;99.90;;;;;;5043334;28;20036;-71
2021/08/01 01:39:32;;;;;;;7.10;4.18;;;15.40;99.90;;;;;;5043373;28;20025;-71
2021/08/01 01:41:59;;;;;;;16.15;5.18;;;15.40;99.90;;;;;;5043153;28;20045;-75
2021/08/01 01:44:25;;;;;;;13.02;4.03;;;15.40;99.90;;;;;;5042944;28;20033;-73
2021/08/01 01:46:52;;;;;;;7.70;4.53;;;15.40;99.90;;;;;;5044699;28;20041;-72
2021/08/01 01:49:18;;;;;;;13.32;4.63;;;15.40;99.90;;;;;;5044727;28;20026;-74
2021/08/01 01:51:44;;;;;;;14.65;4.70;;;15.40;99.90;;;;;;5044576;28;20029;-72
2021/08/01 01:54:11;;;;;;;10.15;4.88;;;15.30;99.90;;;;;;5044400;28;20437;-73
2021/08/01 01:56:39;;;;;;;9.30;4.63;;;15.40;99.90;;;;;;5044445;28;20056;-72
2021/08/01 01:59:05;;;;;;;8.98;4.50;;;15.40;99.90;;;;;;5044456;28;20025;-72
2021/08/01 02:01:31;;;;;;;12.52;4.95;;;15.30;99.90;;;;;;5042990;28;20048;-70
2021/08/01 02:03:57;;;;;;;6.90;4.20;;;15.40;99.90;;;;;;5042967;28;20026;-72
2021/08/01 02:06:23;;;;;;;21.38;6.00;;;15.40;99.90;;;;;;5044132;28;20037;-72
2021/08/01 02:08:57;;;;;;;11.77;6.18;;;15.40;99.90;;;;;;5044344;28;20029;-71
2021/08/01 02:11:29;;;;;;;14.82;5.05;;;15.40;99.90;;;;;;5043018;28;20132;-73
2021/08/01 02:14:09;;;;;;;9.07;4.47;;;15.40;99.90;;;;;;5044463;28;20071;-72
2021/08/01 02:16:37;;;;;;;10.13;4.78;;;15.40;99.90;;;;;;5042742;28;20045;-73
2021/08/01 02:19:06;;;;;;;11.80;5.45;;;15.40;99.90;;;;;;5042668;28;20517;-70
2021/08/01 02:21:34;;;;;;;10.13;5.30;;;15.40;99.90;;;;;;5046484;28;20048;-73
2021/08/01 02:24:00;;;;;;;23.35;6.38;;;15.30;99.90;;;;;;5047981;28;20029;-72
2021/08/01 02:26:27;;;;;;;10.57;4.63;;;15.40;99.90;;;;;;5046546;28;20067;-71
2021/08/01 02:28:53;;;;;;;9.38;5.03;;;15.40;99.90;;;;;;5046736;28;20025;-72
2021/08/01 02:31:24;;;;;;;9.20;4.72;;;15.40;99.90;;;;;;5048160;28;20068;-72
2021/08/01 02:33:50;;;;;;;10.02;5.13;;;15.40;99.90;;;;;;5047603;28;20043;-71
2021/08/01 02:36:18;;;;;;;10.75;4.95;;;15.40;99.90;;;;;;5046895;28;20037;-70
2021/08/01 02:38:47;;;;;;;13.98;6.05;;;15.40;99.90;;;;;;5046425;28;20401;-72
2021/08/01 02:41:25;;;;;;;11.07;5.75;;;15.30;99.90;;;;;;5047879;28;20026;-70
2021/08/01 02:43:51;;;;;;;12.95;5.45;;;15.30;99.90;;;;;;5047912;28;20449;-73
2021/08/01 02:46:22;;;;;;;10.02;5.03;;;15.30;99.90;;;;;;5047334;28;20029;-71
2021/08/01 02:48:48;;;;;;;10.45;5.10;;;15.20;99.90;;;;;;5046623;28;20116;-71
2021/08/01 02:51:16;;;;;;;13.82;6.15;;;15.20;99.90;;;;;;5047980;28;20033;-73
2021/08/01 02:53:46;;;;;;;15.75;5.35;;;15.20;99.90;;;;;;5047395;28;20028;-69
2021/08/01 02:56:18;;;;;;;9.43;5.03;;;15.20;99.90;;;;;;5047755;28;20017;-72
2021/08/01 02:58:45;;;;;;;12.00;5.05;;;15.20;99.90;;;;;;5047796;28;20037;-70
2021/08/01 03:01:11;;;;;;;12.63;5.60;;;15.20;99.90;;;;;;5047594;28;20022;-69
2021/08/01 03:03:40;;;;;;;14.13;5.85;;;15.20;99.90;;;;;;5047224;28;20040;-71
2021/08/01 03:06:07;;;;;;;8.75;4.35;;;15.10;99.90;;;;;;5045683;28;20049;-70
2021/08/01 03:08:33;;;;;;;11.02;5.72;;;15.20;99.90;;;;;;5046013;28;20064;-69
2021/08/01 03:10:58;;;;;;;17.08;5.72;;;15.20;99.90;;;;;;5047286;28;20076;-70
2021/08/01 03:13:24;;;;;;;13.65;6.65;;;15.20;99.90;;;;;;5047250;28;20032;-71
2021/08/01 03:15:52;;;;;;;10.70;4.90;;;15.20;99.90;;;;;;5047280;28;20077;-72
2021/08/01 03:18:17;;;;;;;12.35;5.80;;;15.20;99.90;;;;;;5047211;28;20021;-71
2021/08/01 03:20:43;;;;;;;11.05;5.35;;;15.20;99.90;;;;;;5045839;28;20111;-69
2021/08/01 03:23:09;;;;;;;18.67;7.05;;;15.20;99.90;;;;;;5045450;28;20032;-69
2021/08/01 03:25:34;;;;;;;16.60;5.20;;;15.20;99.90;;;;;;5045606;28;20044;-73
2021/08/01 03:28:02;;;;;;;18.05;5.63;;;15.20;99.90;;;;;;5046939;28;20026;-70
2021/08/01 03:30:28;;;;;;;15.95;6.03;;;15.20;99.90;;;;;;5046614;28;20025;-71
2021/08/01 03:32:53;;;;;;;9.30;5.35;;;15.20;99.90;;;;;;5045821;28;20036;-69
2021/08/01 03:35:21;;;;;;;8.25;5.25;;;15.20;99.90;;;;;;5046874;28;20022;-70
2021/08/01 03:37:47;;;;;;;10.40;5.18;;;15.20;99.90;;;;;;5047097;28;20021;-70
2021/08/01 03:40:13;;;;;;;17.33;6.68;;;15.10;99.90;;;;;;5045528;28;20036;-69
2021/08/01 03:42:39;;;;;;;10.15;5.43;;;15.20;99.90;;;;;;5046388;28;20056;-70
2021/08/01 03:45:08;;;;;;;22.58;6.47;;;15.20;99.90;;;;;;5044997;28;20025;-72
2021/08/01 03:47:33;;;;;;;11.57;5.65;;;15.20;99.90;;;;;;5046564;28;20112;-71
2021/08/01 03:49:59;;;;;;;9.38;5.28;;;15.20;99.90;;;;;;5046506;28;20025;-74
2021/08/01 03:52:24;;;;;;;9.30;5.15;;;15.20;99.90;;;;;;5045084;28;20036;-71
2021/08/01 03:54:51;;;;;;;11.93;6.30;;;15.20;99.90;;;;;;5046556;28;20061;-73
2021/08/01 03:57:17;;;;;;;11.25;6.03;;;15.20;99.90;;;;;;5045515;28;20086;-72
2021/08/01 03:59:43;;;;;;;12.70;6.68;;;15.20;99.90;;;;;;5046511;28;20077;-71
2021/08/01 04:02:08;;;;;;;15.70;6.63;;;15.20;99.90;;;;;;5046394;28;20037;-71
2021/08/01 04:04:34;;;;;;;13.50;6.15;;;15.20;99.90;;;;;;5046093;28;20025;-73
2021/08/01 04:07:00;;;;;;;21.17;6.80;;;15.20;99.90;;;;;;5044838;28;20168;-72
2021/08/01 04:09:26;;;;;;;16.60;6.70;;;15.10;99.90;;;;;;5046113;28;20025;-72
2021/08/01 04:11:51;;;;;;;16.70;6.88;;;15.10;99.90;;;;;;5044530;28;20438;-71
2021/08/01 04:14:17;;;;;;;14.02;6.55;;;15.20;99.90;;;;;;5044943;28;20048;-72
2021/08/01 04:16:43;;;;;;;14.27;6.45;;;15.10;99.90;;;;;;5045538;28;20045;-73
2021/08/01 04:19:16;;;;;;;11.95;6.20;;;15.10;99.90;;;;;;5044621;28;20060;-69
2021/08/01 04:21:43;;;;;;;14.85;7.20;;;15.10;99.90;;;;;;5044670;28;20205;-69
2021/08/01 04:24:09;;;;;;;16.52;5.78;;;15.20;99.90;;;;;;5044504;28;20052;-70
2021/08/01 04:26:36;;;;;;;11.88;5.82;;;15.20;99.90;;;;;;5045819;28;20041;-71
2021/08/01 04:29:02;;;;;;;11.93;6.18;;;15.20;99.90;;;;;;5045900;28;20057;-70
2021/08/01 04:31:28;;;;;;;15.70;6.97;;;15.20;99.90;;;;;;5045742;28;20077;-69
2021/08/01 04:33:53;;;;;;;14.65;7.15;;;15.20;99.90;;;;;;5045864;28;20044;-73
2021/08/01 04:36:19;;;;;;;13.60;5.80;;;15.20;99.90;;;;;;5045944;28;20032;-71
2021/08/01 04:38:45;;;;;;;17.42;6.30;;;15.20;99.90;;;;;;5045386;28;20040;-71
2021/08/01 04:41:11;;;;;;;19.48;6.78;;;15.20;99.90;;;;;;5045244;28;20029;-71
2021/08/01 04:43:36;;;;;;;14.57;7.25;;;15.10;99.90;;;;;;5044901;28;20034;-70
2021/08/01 04:46:02;;;;;;;11.82;6.32;;;15.20;99.90;;;;;;5044132;28;20045;-73
2021/08/01 04:48:27;;;;;;;15.63;6.88;;;15.20;99.90;;;;;;5045458;28;20026;-71
2021/08/01 04:50:53;;;;;;;13.85;6.80;;;15.20;99.90;;;;;;5045108;28;20061;-72
2021/08/01 04:53:19;;;;;;;14.50;6.45;;;15.20;99.90;;;;;;5045331;28;20052;-71
2021/08/01 04:55:44;;;;;;;15.38;6.72;;;15.30;99.90;;;;;;5044452;28;20125;-70
2021/08/01 04:58:10;;;;;;;24.20;6.50;;;15.30;99.90;;;;;;5052980;28;20028;-70
2021/08/01 05:00:36;;;;;;;9.70;5.53;;;15.30;99.90;;;;;;5061493;28;20386;-71
2021/08/01 05:03:02;;;;;;;14.02;6.63;;;15.40;99.90;;;;;;5060933;28;20047;-71
2021/08/01 05:05:34;;;;;;;12.32;6.57;;;15.30;99.90;;;;;;5061017;28;20067;-72
2021/08/01 05:08:00;;;;;;;14.55;6.00;;;15.30;99.90;;;;;;5054186;28;20029;-72
2021/08/01 05:10:26;;;;;;;10.63;6.05;;;15.40;99.90;;;;;;5060014;28;20485;-72
2021/08/01 05:12:51;;;;;;;14.77;5.80;;;15.30;99.90;;;;;;5049215;28;20044;-70
2021/08/01 05:15:17;;;;;;;17.17;7.07;;;15.30;99.90;;;;;;5043204;28;20402;-72
2021/08/01 05:17:43;;;;;;;13.23;6.22;;;15.40;99.90;;;;;;5043355;28;20033;-71
2021/08/01 05:20:09;;;;;;;24.58;6.18;;;15.40;99.90;;;;;;5050775;28;20029;-68
2021/08/01 05:22:35;;;;;;;11.25;6.15;;;15.40;99.90;;;;;;5043449;28;20055;-72
2021/08/01 05:25:00;;;;;;;13.93;6.57;;;15.30;99.90;;;;;;5058754;28;20088;-70
2021/08/01 05:27:26;;;;;;;20.17;6.82;;;15.40;99.90;;;;;;5066823;28;20097;-71
2021/08/01 05:29:52;;;;;;;29.70;7.20;;;15.40;99.90;;;;;;5058859;28;20037;-70
2021/08/01 05:32:18;;;;;;;20.23;7.43;;;15.40;99.90;;;;;;5045002;28;20375;-69
2021/08/01 05:34:44;;;;;;;20.35;7.57;;;15.40;99.90;;;;;;5043155;28;20029;-69
2021/08/01 05:37:09;;;;;;;13.43;6.18;;;15.50;99.90;;;;;;5044797;28;20039;-68
2021/08/01 05:39:35;;;;;;;13.02;6.72;;;15.50;99.90;;;;;;5044578;28;20034;-69
2021/08/01 05:42:02;;;;;;;11.73;6.10;;;15.60;99.90;;;;;;5044626;28;20071;-70
2021/08/01 05:44:27;;;;;;;14.18;5.65;;;15.60;99.90;;;;;;5050251;28;20413;-69
2021/08/01 05:46:53;;;;;;;19.17;6.25;;;15.70;99.90;;;;;;5059402;28;20049;-70
2021/08/01 05:49:19;;;;;;;12.77;6.53;;;15.80;99.90;;;;;;5057346;28;20021;-69
2021/08/01 05:51:44;;;;;;;14.75;6.53;;;15.80;99.90;;;;;;5048372;28;20048;-72
2021/08/01 05:54:10;;;;;;;16.80;5.65;;;15.80;99.90;;;;;;5042131;28;20022;-69
2021/08/01 05:56:36;;;;;;;10.00;5.15;;;15.90;99.90;;;;;;5043112;28;20087;-69
2021/08/01 05:59:01;;;;;;;10.80;4.80;;;15.90;99.90;;;;;;5044540;28;20065;-70
2021/08/01 06:01:27;;;;;;;7.80;4.82;;;16.00;99.90;;;;;;5051986;28;20036;-71
2021/08/01 06:03:53;;;;;;;13.43;5.82;;;16.00;99.90;;;;;;5050181;28;20044;-70
2021/08/01 06:06:24;;;;;;;12.20;5.32;;;16.00;99.90;;;;;;5054740;28;20051;-69
2021/08/01 06:08:51;;;;;;;10.65;5.30;;;16.00;99.90;;;;;;5046863;28;20029;-69
2021/08/01 06:11:19;;;;;;;9.20;4.68;;;16.00;99.90;;;;;;5043417;28;20025;-71
2021/08/01 06:13:45;;;;;;;11.57;5.97;;;16.00;99.90;;;;;;5050399;28;20032;-70
2021/08/01 06:16:12;;;;;;;18.95;5.68;;;16.00;99.90;;;;;;5063635;28;20053;-69
2021/08/01 06:18:39;;;;;;;20.75;6.40;;;16.00;99.90;;;;;;5062886;28;20365;-69
2021/08/01 06:21:18;;;;;;;16.13;5.50;;;16.00;99.90;;;;;;5064171;28;20032;-68
2021/08/01 06:23:47;;;;;;;11.48;5.20;;;16.10;99.90;;;;;;5062827;28;20033;-71
2021/08/01 06:26:13;;;;;;;10.95;4.45;;;16.10;99.90;;;;;;5064062;28;20059;-69
2021/08/01 06:28:39;;;;;;;9.55;4.88;;;16.10;99.90;;;;;;5063911;28;20033;-70
2021/08/01 06:31:06;;;;;;;18.17;5.57;;;16.10;99.90;;;;;;5064321;28;20099;-68
2021/08/01 06:33:32;;;;;;;8.40;4.28;;;16.20;99.90;;;;;;5062408;28;20029;-68
2021/08/01 06:35:58;;;;;;;9.25;5.05;;;16.20;99.90;;;;;;5063961;28;20021;-70
2021/08/01 06:38:24;;;;;;;8.38;4.68;;;16.30;99.90;;;;;;5064057;28;20044;-70
2021/08/01 06:40:50;;;;;;;7.00;4.20;;;16.20;99.90;;;;;;5062232;28;20033;-70
2021/08/01 06:43:16;;;;;;;11.27;4.57;;;16.20;99.90;;;;;;5052825;28;20081;-71
2021/08/01 06:45:42;;;;;;;7.05;4.40;;;16.20;99.90;;;;;;5059141;28;20041;-70
2021/08/01 06:48:07;;;;;;;10.10;4.18;;;16.40;99.90;;;;;;5042614;28;20029;-69
2021/08/01 06:50:37;;;;;;;8.25;4.55;;;16.30;99.90;;;;;;5043853;28;20025;-69
2021/08/01 06:53:03;;;;;;;10.43;4.70;;;16.40;99.90;;;;;;5043451;28;20021;-71
2021/08/01 06:55:29;;;;;;;10.52;5.40;;;16.40;99.90;;;;;;5044119;28;20132;-69
2021/08/01 06:57:55;;;;;;;11.88;5.82;;;16.40;99.90;;;;;;5042807;28;20033;-69
2021/08/01 07:00:20;;;;;;;10.95;5.43;;;16.60;99.90;;;;;;5044098;28;20029;-70
2021/08/01 07:03:00;;;;;;;8.95;5.75;;;16.50;99.90;;;;;;5043829;28;20026;-70
2021/08/01 07:05:27;;;;;;;9.23;4.97;;;16.60;99.90;;;;;;5043810;28;20033;-71
2021/08/01 07:07:53;;;;;;;12.73;5.40;;;16.70;99.90;;;;;;5047407;28;20021;-71
2021/08/01 07:10:19;;;;;;;10.15;5.05;;;16.70;99.90;;;;;;5047604;28;20025;-72
2021/08/01 07:12:46;;;;;;;11.15;5.72;;;16.70;99.90;;;;;;5047871;28;20021;-71
2021/08/01 07:15:16;;;;;;;17.38;7.75;;;16.80;99.90;;;;;;5054628;28;20113;-70
2021/08/01 07:17:42;;;;;;;12.45;6.00;;;16.80;99.90;;;;;;5066869;28;20045;-71
2021/08/01 07:20:09;;;;;;;16.73;7.07;;;16.90;99.90;;;;;;5064828;28;20080;-70
2021/08/01 07:22:35;;;;;;;12.77;7.15;;;16.90;99.90;;;;;;5062230;28;20109;-70
2021/08/01 07:25:01;;;;;;;20.98;7.57;;;16.90;99.90;;;;;;5046819;28;20028;-69
2021/08/01 07:27:27;;;;;;;14.00;6.78;;;16.90;99.90;;;;;;5046807;28;20061;-71
2021/08/01 07:29:53;;;;;;;13.27;7.47;;;17.00;99.90;;;;;;5045678;28;20040;-72
2021/08/01 07:32:19;;;;;;;22.23;8.82;;;17.10;99.90;;;;;;5047200;28;20025;-70
2021/08/01 07:34:45;;;;;;;21.20;7.35;;;17.00;99.90;;;;;;5062523;28;20025;-72
2021/08/01 07:37:10;;;;;;;18.17;8.30;;;17.00;99.90;;;;;;5046689;28;20030;-71
2021/08/01 07:39:36;;;;;;;18.85;7.90;;;17.00;99.90;;;;;;5046907;28;20033;-69
2021/08/01 07:42:02;;;;;;;15.15;8.05;;;16.90;99.90;;;;;;5046732;28;20085;-69
2021/08/01 07:44:30;;;;;;;15.40;8.35;;;16.90;99.90;;;;;;5061598;28;20484;-68
2021/08/01 07:46:58;;;;;;;22.60;9.50;;;16.80;99.90;;;;;;5046801;28;20470;-69
2021/08/01 07:49:23;;;;;;;18.27;8.18;;;16.80;99.90;;;;;;5046607;28;20025;-70
2021/08/01 07:51:49;;;;;;;20.98;8.93;;;16.80;99.90;;;;;;5046610;28;20047;-72
2021/08/01 07:54:15;;;;;;;20.38;8.77;;;16.90;99.90;;;;;;5045289;28;20022;-71
2021/08/01 07:56:40;;;;;;;18.95;8.88;;;16.90;99.90;;;;;;5044484;28;20843;-72
2021/08/01 07:59:06;;;;;;;19.60;10.43;;;16.80;99.90;;;;;;5043151;28;20072;-69
2021/08/01 08:01:32;;;;;;;19.10;10.10;;;16.90;99.90;;;;;;5060971;28;20036;-70
2021/08/01 08:03:57;;;;;;;23.00;10.18;;;17.00;99.90;;;;;;5045624;28;20026;-70
2021/08/01 08:06:23;;;;;;;23.48;9.48;;;17.10;99.90;;;;;;5048748;28;20045;-70
2021/08/01 08:08:49;;;;;;;22.50;10.02;;;17.30;99.90;;;;;;5045150;28;20057;-71
2021/08/01 08:11:14;;;;;;;19.00;8.07;;;17.60;99.90;;;;;;5045521;28;20033;-72
2021/08/01 08:13:40;;;;;;;17.05;8.27;;;17.60;99.90;;;;;;5044694;28;20387;-69
2021/08/01 08:16:06;;;;;;;24.42;9.68;;;17.70;99.90;;;;;;5043976;28;20053;-70
2021/08/01 08:18:31;;;;;;;16.45;7.97;;;17.80;99.90;;;;;;5044695;28;20040;-71
2021/08/01 08:20:57;;;;;;;16.10;7.75;;;17.80;99.90;;;;;;5046228;28;20025;-73
2021/08/01 08:23:26;;;;;;;16.02;7.72;;;17.80;99.90;;;;;;5045300;28;20093;-71
2021/08/01 08:25:54;;;;;;;19.00;7.50;;;18.00;99.90;;;;;;5043312;28;20034;-72
2021/08/01 08:28:20;;;;;;;13.52;6.68;;;18.10;99.90;;;;;;5054193;28;20035;-69
2021/08/01 08:30:45;;;;;;;12.07;6.47;;;18.20;99.90;;;;;;5053415;28;20104;-69
2021/08/01 08:33:12;;;;;;;14.32;7.45;;;18.20;99.90;;;;;;5057710;28;20029;-71
2021/08/01 08:35:40;;;;;;;12.80;7.00;;;18.20;99.90;;;;;;5064439;28;20013;-70
2021/08/01 08:38:05;;;;;;;11.55;6.85;;;18.40;99.90;;;;;;5051281;28;20071;-71
2021/08/01 08:40:36;;;;;;;21.80;7.93;;;18.30;99.90;;;;;;5054068;28;20029;-75
2021/08/01 08:43:02;;;;;;;9.82;6.07;;;18.40;99.90;;;;;;5056336;28;20033;-71
2021/08/01 08:45:28;;;;;;;15.60;7.32;;;18.50;99.90;;;;;;5045223;28;20060;-71
2021/08/01 08:47:59;;;;;;;9.98;5.57;;;18.60;99.90;;;;;;5061058;28;20033;-71
2021/08/01 08:50:25;;;;;;;8.40;5.30;;;18.70;99.90;;;;;;5045732;28;20029;-72
2021/08/01 08:53:01;;;;;;;11.57;5.45;;;18.60;99.90;;;;;;5045687;28;20030;-71
2021/08/01 08:55:35;;;;;;;11.10;5.97;;;18.50;99.90;;;;;;5044838;28;20108;-71
2021/08/01 08:58:03;;;;;;;20.52;6.20;;;18.30;99.90;;;;;;5045585;28;20056;-70
2021/08/01 09:00:30;;;;;;;15.52;7.18;;;18.20;99.90;;;;;;5049051;28;20036;-71
2021/08/01 09:02:56;;;;;;;16.65;7.82;;;18.10;99.90;;;;;;5046591;28;20021;-72
2021/08/01 09:05:26;;;;;;;21.83;8.80;;;18.00;99.90;;;;;;5062942;28;20037;-73
2021/08/01 09:07:52;;;;;;;13.23;7.63;;;18.00;99.90;;;;;;5060603;28;20067;-72
2021/08/01 09:10:19;;;;;;;25.55;9.75;;;18.10;99.90;;;;;;5045267;28;20017;-70
2021/08/01 09:12:50;;;;;;;26.02;10.20;;;18.20;99.90;;;;;;5043869;28;20068;-69
2021/08/01 09:15:24;;;;;;;23.02;11.32;;;18.30;99.90;;;;;;5043584;28;20037;-71
2021/08/01 09:17:55;;;;;;;31.52;12.50;;;18.40;99.90;;;;;;5044935;28;20076;-72
2021/08/01 09:20:32;;;;;;;23.70;9.45;;;18.40;99.90;;;;;;5045492;28;20030;-71
2021/08/01 09:23:00;;;;;;;29.73;10.43;;;18.60;99.90;;;;;;5044693;28;20045;-71
2021/08/01 09:25:28;;;;;;;23.65;10.02;;;18.80;99.90;;;;;;5043764;28;20033;-69
2021/08/01 09:28:17;;;;;;;21.58;10.25;;;18.90;99.90;;;;;;5044664;28;20068;-73
2021/08/01 09:30:48;;;;;;;18.25;9.50;;;19.10;99.90;;;;;;5044910;28;20030;-73
2021/08/01 09:33:17;;;;;;;19.45;9.30;;;19.20;99.90;;;;;;5043619;28;20018;-71
2021/08/01 09:35:43;;;;;;;21.23;9.77;;;19.20;99.90;;;;;;5044843;28;20121;-70
2021/08/01 09:38:09;;;;;;;24.85;9.80;;;19.10;99.90;;;;;;5043527;28;20034;-67
2021/08/01 09:40:34;;;;;;;19.10;9.50;;;18.90;99.90;;;;;;5044652;28;20036;-69
2021/08/01 09:43:12;;;;;;;23.48;10.35;;;18.80;99.90;;;;;;5044730;28;20025;-68
2021/08/01 09:45:38;;;;;;;24.67;10.38;;;18.70;99.90;;;;;;5052213;28;20045;-68
2021/08/01 09:48:21;;;;;;;20.73;11.05;;;18.40;99.90;;;;;;5065055;28;20025;-69
2021/08/01 09:51:00;;;;;;;22.33;11.50;;;18.20;99.90;;;;;;5054438;28;20120;-68
2021/08/01 09:53:28;;;;;;;24.63;10.55;;;18.10;99.90;;;;;;5060052;28;20536;-70
2021/08/01 09:56:26;;;;;;;24.52;11.30;;;18.00;99.90;;;;;;5043708;28;20053;-71
2021/08/01 09:58:53;;;;;;;25.92;12.25;;;17.90;99.90;;;;;;5010891;28;20048;-69
2021/08/01 10:01:21;;;;;;;24.95;11.90;;;17.80;99.90;;;;;;5049276;28;20033;-72
2021/08/01 10:03:50;;;;;;;28.48;13.27;;;17.80;99.90;;;;;;5062964;28;20031;-70
2021/08/01 10:06:29;;;;;;;28.98;12.88;;;17.70;99.90;;;;;;5064333;28;20461;-69
2021/08/01 10:08:55;;;;;;;26.88;12.80;;;17.70;99.90;;;;;;5063856;28;20104;-71
2021/08/01 10:11:26;;;;;;;23.15;12.52;;;17.70;99.90;;;;;;5062981;28;20055;-71
2021/08/01 10:13:56;;;;;;;26.55;13.35;;;18.00;99.90;;;;;;5064651;28;20097;-72
2021/08/01 10:16:24;;;;;;;27.52;13.45;;;18.20;99.90;;;;;;5064238;28;20104;-72
2021/08/01 10:18:51;;;;;;;34.13;13.60;;;18.40;99.90;;;;;;5063878;28;20064;-71
2021/08/01 10:21:22;;;;;;;25.52;12.55;;;18.50;99.90;;;;;;5064217;28;20021;-70
2021/08/01 10:24:00;;;;;;;22.75;11.90;;;18.60;99.90;;;;;;5062839;28;20078;-67
2021/08/01 10:26:35;;;;;;;21.90;11.57;;;18.60;99.90;;;;;;5056238;28;20093;-73
2021/08/01 10:29:06;;;;;;;21.70;12.05;;;18.40;99.90;;;;;;5044101;28;20030;-68
2021/08/01 10:31:37;;;;;;;24.35;11.80;;;18.30;99.90;;;;;;5044261;28;20030;-69
2021/08/01 10:34:24;;;;;;;21.25;12.30;;;18.20;99.90;;;;;;5044003;28;20030;-68
2021/08/01 10:36:54;;;;;;;28.20;13.60;;;18.00;99.90;;;;;;5044342;28;20083;-71
2021/08/01 10:39:29;;;;;;;26.13;14.18;;;17.90;99.90;;;;;;5043019;28;20029;-70
2021/08/01 10:41:56;;;;;;;34.65;15.25;;;17.70;99.90;;;;;;5046934;28;20405;-69
2021/08/01 10:44:23;;;;;;;35.78;14.88;;;17.70;99.90;;;;;;5062367;28;20033;-68
2021/08/01 10:46:49;;;;;;;25.25;12.98;;;17.50;99.90;;;;;;5067716;28;20044;-68
2021/08/01 10:49:15;;;;;;;27.95;13.98;;;17.40;99.90;;;;;;5067852;28;20033;-70
2021/08/01 10:51:41;;;;;;;19.15;10.93;;;17.30;99.90;;;;;;5067759;28;20025;-70
2021/08/01 10:54:19;;;;;;;19.95;11.55;;;17.30;99.90;;;;;;5067570;28;20029;-69
2021/08/01 10:56:46;;;;;;;23.85;11.40;;;17.20;99.90;;;;;;5067483;28;20028;-75
2021/08/01 10:59:43;;;;;;;28.42;14.27;;;17.10;99.90;;;;;;5065740;28;20039;-69
2021/08/01 11:02:15;;;;;;;22.90;11.15;;;17.10;99.90;;;;;;5066901;28;20037;-72
2021/08/01 11:04:46;;;;;;;19.83;9.93;;;17.10;99.90;;;;;;5067210;28;20063;-70
2021/08/01 11:07:33;;;;;;;17.13;8.88;;;17.10;99.90;;;;;;5067351;28;20041;-70
2021/08/01 11:10:07;;;;;;;14.20;7.60;;;17.10;99.90;;;;;;5055844;28;20033;-70
2021/08/01 11:12:42;;;;;;;11.20;7.13;;;17.10;99.90;;;;;;5065854;28;20052;-69
2021/08/01 11:15:15;;;;;;;13.60;7.72;;;17.10;99.90;;;;;;5067210;28;20041;-71
2021/08/01 11:17:43;;;;;;;13.05;7.60;;;17.00;99.90;;;;;;5066960;28;20052;-71
2021/08/01 11:20:14;;;;;;;14.93;8.68;;;17.00;99.90;;;;;;5066760;28;20104;-69
2021/08/01 11:22:40;;;;;;;20.42;9.75;;;16.90;99.90;;;;;;5065260;28;20136;-68
2021/08/01 11:25:26;;;;;;;12.32;5.88;;;16.90;99.90;;;;;;5065565;28;20039;-71
2021/08/01 11:28:10;;;;;;;14.68;3.95;;;16.80;99.90;;;;;;5067479;28;20156;-69
2021/08/01 11:31:19;;;;;;;3.13;2.30;;;16.70;99.90;;;;;;5066706;28;20040;-70
2021/08/01 11:33:51;;;;;;;2.95;1.63;;;16.50;99.90;;;;;;5065250;28;20290;-74
2021/08/01 11:36:20;;;;;;;1.42;1.17;;;16.40;99.90;;;;;;5067098;28;20834;-70
2021/08/01 11:38:50;;;;;;;1.35;0.82;;;16.20;99.90;;;;;;5066299;28;20025;-72
2021/08/01 11:41:33;;;;;;;1.75;1.00;;;15.90;99.90;;;;;;5064958;28;20051;-72
2021/08/01 11:44:11;;;;;;;8.65;2.55;;;15.90;99.90;;;;;;5066389;28;20025;-71
2021/08/01 11:46:58;;;;;;;1.77;1.10;;;15.90;99.90;;;;;;5065779;28;20072;-74
2021/08/01 11:49:24;;;;;;;1.25;0.73;;;15.90;99.90;;;;;;5065728;28;20501;-70
2021/08/01 11:51:58;;;;;;;2.33;1.13;;;15.80;99.90;;;;;;5065653;28;20025;-70
2021/08/01 11:54:34;;;;;;;3.20;1.33;;;15.90;99.90;;;;;;5066413;28;20025;-73
2021/08/01 11:57:05;;;;;;;1.52;1.10;;;16.10;99.90;;;;;;5064958;28;20392;-70
2021/08/01 11:59:31;;;;;;;3.53;1.20;;;16.30;99.90;;;;;;5066957;28;20085;-72
2021/08/01 12:01:58;;;;;;;1.88;1.00;;;16.40;99.90;;;;;;5066852;28;20066;-70
2021/08/01 12:04:24;;;;;;;1.92;1.05;;;16.50;99.90;;;;;;5064986;28;20029;-71
2021/08/01 12:06:52;;;;;;;1.80;0.93;;;16.50;99.90;;;;;;5066483;28;20051;-70
2021/08/01 12:09:23;;;;;;;2.63;1.65;;;16.60;99.90;;;;;;5066700;28;20059;-71
2021/08/01 12:12:01;;;;;;;3.25;1.38;;;16.60;99.90;;;;;;5066215;28;20025;-71
2021/08/01 12:14:30;;;;;;;2.70;1.50;;;16.70;99.90;;;;;;5066238;28;20103;-72
2021/08/01 12:17:07;;;;;;;2.60;1.13;;;16.70;99.90;;;;;;5065755;28;20128;-71
2021/08/01 12:19:51;;;;;;;4.05;1.05;;;16.70;99.90;;;;;;5066359;28;20052;-69
2021/08/01 12:22:22;;;;;;;2.45;1.48;;;16.60;99.90;;;;;;5066203;28;20029;-73
2021/08/01 12:24:55;;;;;;;2.15;1.25;;;16.60;99.90;;;;;;5066123;28;20033;-77
2021/08/01 12:27:27;;;;;;;1.55;1.17;;;16.60;99.90;;;;;;5064999;28;20037;-71
2021/08/01 12:30:01;;;;;;;1.15;0.80;;;16.60;99.90;;;;;;5066164;28;20424;-72
2021/08/01 12:32:27;;;;;;;4.10;1.20;;;16.50;99.90;;;;;;5065918;28;20032;-72
2021/08/01 12:35:08;;;;;;;1.55;0.98;;;16.40;99.90;;;;;;5064387;28;20029;-74
2021/08/01 12:38:10;;;;;;;2.28;1.40;;;16.30;99.90;;;;;;5064410;28;20078;-72
2021/08/01 12:40:38;;;;;;;1.95;1.08;;;16.20;99.90;;;;;;5061986;28;20045;-73
2021/08/01 12:43:08;;;;;;;3.65;1.48;;;16.20;99.90;;;;;;5058350;28;20034;-72
2021/08/01 12:45:41;;;;;;;2.60;1.20;;;16.20;99.90;;;;;;5049466;28;20393;-72
2021/08/01 12:48:20;;;;;;;1.80;1.15;;;16.20;99.90;;;;;;5065491;28;20076;-72